Time;durP1;ratioP1;P1;durP2;ratioP2;P2;SDS_P1;SDS_P2;PMS_P1;PMS_P2;Temp;Humidity;BMP_temperature;BMP_pressure;BME280_temperature;BME280_humidity;BME280_pressure;Samples;Min_cycle;Max_cycle;Signal;HPM_P1;HPM_P2
2021/06/15 00:01:33;;;;;;;9.60;6.82;;;;;;;13.02;68.83;100086.81;5119008;28;20053;-51
2021/06/15 00:03:59;;;;;;;12.13;7.03;;;;;;;12.98;68.83;100087.84;5120166;28;20092;-51
2021/06/15 00:06:25;;;;;;;12.90;7.57;;;;;;;12.95;68.99;100095.81;5120346;28;20067;-50
2021/06/15 00:08:51;;;;;;;9.70;7.40;;;;;;;12.92;68.88;100085.38;5118937;28;20039;-50
2021/06/15 00:11:17;;;;;;;11.55;7.03;;;;;;;12.87;68.87;100082.91;5120005;28;20043;-50
2021/06/15 00:13:42;;;;;;;13.40;7.13;;;;;;;12.85;69.24;100079.44;5118775;28;20436;-50
2021/06/15 00:16:08;;;;;;;10.25;7.03;;;;;;;12.82;69.36;100075.13;5119593;28;20044;-50
2021/06/15 00:18:34;;;;;;;9.63;7.18;;;;;;;12.78;69.42;100075.28;5120167;28;20101;-51
2021/06/15 00:21:00;;;;;;;11.82;7.80;;;;;;;12.77;69.72;100073.53;5119587;28;20047;-50
2021/06/15 00:23:26;;;;;;;10.00;6.75;;;;;;;12.74;69.40;100071.91;5119771;28;20116;-50
2021/06/15 00:25:51;;;;;;;11.23;7.57;;;;;;;12.70;69.57;100070.25;5119015;28;20455;-51
2021/06/15 00:28:19;;;;;;;10.20;7.18;;;;;;;12.67;69.73;100059.81;5118253;28;20040;-50
2021/06/15 00:30:46;;;;;;;9.23;6.55;;;;;;;12.63;69.50;100056.41;5118421;28;20392;-51
2021/06/15 00:33:11;;;;;;;9.27;6.95;;;;;;;12.59;69.77;100054.81;5117806;28;20043;-51
2021/06/15 00:35:37;;;;;;;8.85;6.28;;;;;;;12.56;70.01;100047.00;5118345;28;20372;-51
2021/06/15 00:38:04;;;;;;;9.18;6.40;;;;;;;12.52;70.28;100048.00;5117468;28;20347;-51
2021/06/15 00:40:29;;;;;;;14.95;6.20;;;;;;;12.50;70.73;100051.56;5117592;28;20100;-50
2021/06/15 00:42:56;;;;;;;10.05;6.13;;;;;;;12.45;70.71;100043.84;5117936;28;20062;-51
2021/06/15 00:45:27;;;;;;;9.80;7.05;;;;;;;12.43;71.01;100040.38;5117271;28;20040;-51
2021/06/15 00:47:53;;;;;;;10.70;6.55;;;;;;;12.40;71.18;100054.47;5118483;28;20340;-51
2021/06/15 00:50:20;;;;;;;9.45;6.93;;;;;;;12.36;71.08;100049.34;5116975;28;20100;-51
2021/06/15 00:52:48;;;;;;;14.25;7.57;;;;;;;12.30;71.12;100049.53;5116892;28;20058;-50
2021/06/15 00:55:14;;;;;;;10.13;6.47;;;;;;;12.28;70.96;100052.19;5118024;28;20126;-50
2021/06/15 00:57:41;;;;;;;9.52;6.40;;;;;;;12.26;71.14;100050.53;5116822;28;20047;-51
2021/06/15 01:00:08;;;;;;;10.82;6.78;;;;;;;12.25;71.11;100051.41;5117692;28;20050;-51
2021/06/15 01:02:33;;;;;;;12.52;7.20;;;;;;;12.18;70.96;100042.84;5117624;28;20051;-51
2021/06/15 01:05:01;;;;;;;12.85;7.10;;;;;;;12.21;70.97;100049.78;5100369;28;20035;-50
2021/06/15 01:07:41;;;;;;;11.13;7.32;;;;;;;12.21;71.14;100041.91;5117531;28;20463;-51
2021/06/15 01:10:18;;;;;;;10.65;7.18;;;;;;;12.16;70.99;100039.41;5117675;28;20040;-51
2021/06/15 01:13:06;;;;;;;13.25;7.55;;;;;;;12.14;71.29;100047.31;5100892;28;20047;-51
2021/06/15 01:15:40;;;;;;;12.45;7.32;;;;;;;12.11;71.59;100042.16;5117468;28;20097;-51
2021/06/15 01:18:11;;;;;;;9.80;6.55;;;;;;;12.08;71.44;100031.72;5099872;28;20097;-51
2021/06/15 01:20:43;;;;;;;10.82;7.72;;;;;;;12.06;71.46;100035.34;5083382;28;20048;-51
2021/06/15 01:23:42;;;;;;;10.65;6.97;;;;;;;12.05;71.53;100031.81;5117658;28;20412;-51
2021/06/15 01:26:21;;;;;;;10.35;6.35;;;;;;;11.99;71.40;100029.38;5112710;28;118317;-50
2021/06/15 01:28:54;;;;;;;9.13;6.15;;;;;;;11.96;71.43;100025.97;5118297;28;20053;-50
2021/06/15 01:31:26;;;;;;;11.65;6.47;;;;;;;11.94;71.37;100028.63;5100728;28;20051;-51
2021/06/15 01:33:59;;;;;;;9.23;6.85;;;;;;;11.92;71.75;100028.66;5118464;27;20043;-50
2021/06/15 01:36:32;;;;;;;11.00;6.90;;;;;;;11.87;71.95;100025.31;5117272;28;20058;-50
2021/06/15 01:39:00;;;;;;;11.00;7.20;;;;;;;11.86;71.81;100022.72;5100802;28;20059;-50
2021/06/15 01:41:42;;;;;;;9.70;5.97;;;;;;;11.85;71.89;100027.13;5101286;28;20047;-50
2021/06/15 01:44:09;;;;;;;11.25;6.50;;;;;;;11.80;71.88;100018.50;5118294;28;20054;-51
2021/06/15 01:47:07;;;;;;;8.60;5.75;;;;;;;11.79;71.71;100015.88;5084469;28;20444;-51
2021/06/15 01:49:40;;;;;;;8.88;6.53;;;;;;;11.73;71.68;100014.28;5100586;28;20055;-51
2021/06/15 01:52:10;;;;;;;9.95;6.85;;;;;;;11.70;72.26;100010.00;5084055;28;20110;-51
2021/06/15 01:54:37;;;;;;;10.90;6.85;;;;;;;11.68;72.30;100011.78;5116828;28;20062;-51
2021/06/15 01:57:08;;;;;;;12.27;7.70;;;;;;;11.66;72.47;100015.34;5116798;28;20459;-50
2021/06/15 01:59:35;;;;;;;11.73;7.90;;;;;;;11.64;72.63;100019.78;5116713;28;20137;-50
2021/06/15 02:02:02;;;;;;;10.48;6.45;;;;;;;11.61;72.40;100018.09;5100241;28;20138;-51
2021/06/15 02:04:33;;;;;;;8.40;5.55;;;;;;;11.58;72.74;100005.06;5100447;28;20036;-50
2021/06/15 02:06:59;;;;;;;9.23;6.03;;;;;;;11.55;72.43;100014.78;5117676;28;20351;-50
2021/06/15 02:09:26;;;;;;;10.13;6.63;;;;;;;11.51;72.34;100011.38;5099873;28;20043;-50
2021/06/15 02:12:01;;;;;;;10.40;6.63;;;;;;;11.49;73.50;100004.44;5116882;28;20138;-50
2021/06/15 02:14:46;;;;;;;12.25;6.43;;;;;;;11.46;73.37;100003.59;5116832;28;20044;-50
2021/06/15 02:17:24;;;;;;;11.43;6.45;;;;;;;11.47;73.65;100007.09;5117013;28;20054;-50
2021/06/15 02:20:01;;;;;;;13.23;6.82;;;;;;;11.40;74.05;99988.03;5101969;28;20065;-50
2021/06/15 02:22:28;;;;;;;13.65;6.30;;;;;;;11.45;74.06;99993.16;5083235;28;20321;-50
2021/06/15 02:24:58;;;;;;;11.05;6.28;;;;;;;11.45;74.03;99991.41;5116503;28;20059;-50
2021/06/15 02:27:24;;;;;;;13.23;7.65;;;;;;;11.42;73.40;99996.72;5099689;28;20059;-50
2021/06/15 02:29:53;;;;;;;17.42;7.30;;;;;;;11.42;73.20;100001.13;5117097;28;20039;-51
2021/06/15 02:32:24;;;;;;;11.65;6.50;;;;;;;11.40;72.99;100001.13;5099653;28;20134;-50
2021/06/15 02:34:50;;;;;;;11.88;6.57;;;;;;;11.39;73.28;99998.56;5082577;28;20048;-50
2021/06/15 02:37:29;;;;;;;9.35;6.38;;;;;;;11.38;73.42;100002.97;5117223;28;20124;-51
2021/06/15 02:39:56;;;;;;;10.55;6.63;;;;;;;11.35;73.66;99999.56;5099410;28;20441;-50
2021/06/15 02:42:22;;;;;;;10.20;6.38;;;;;;;11.33;73.37;100002.19;5116251;28;20047;-50
2021/06/15 02:44:48;;;;;;;9.63;6.28;;;;;;;11.33;73.26;100012.69;5116262;28;20360;-51
2021/06/15 02:47:16;;;;;;;8.88;7.03;;;;;;;11.32;73.25;100010.97;5115930;28;20039;-50
2021/06/15 02:50:04;;;;;;;11.52;6.75;;;;;;;11.31;73.15;100006.63;5082634;28;20048;-50
2021/06/15 02:52:44;;;;;;;13.57;8.27;;;;;;;11.29;73.10;100013.66;5115835;28;20497;-51
2021/06/15 02:55:46;;;;;;;16.35;7.35;;;;;;;11.28;73.50;100016.31;5100254;28;20360;-51
2021/06/15 02:58:12;;;;;;;13.10;7.00;;;;;;;11.26;73.62;100028.63;5104309;28;20055;-51
2021/06/15 03:00:38;;;;;;;14.30;7.70;;;;;;;11.28;73.39;100027.69;5116866;28;20473;-50
2021/06/15 03:03:05;;;;;;;12.80;7.65;;;;;;;11.29;73.81;100026.78;5115601;28;20074;-50
2021/06/15 03:05:31;;;;;;;11.43;7.82;;;;;;;11.32;73.99;100031.09;5113827;28;20040;-51
2021/06/15 03:07:57;;;;;;;15.95;8.68;;;;;;;11.35;73.71;100025.78;5113626;28;20325;-50
2021/06/15 03:10:25;;;;;;;21.15;10.75;;;;;;;11.34;73.85;100024.91;5097448;28;20047;-51
2021/06/15 03:13:01;;;;;;;23.13;11.70;;;;;;;11.38;73.43;100023.09;5097180;28;20133;-51
2021/06/15 03:15:35;;;;;;;20.50;10.77;;;;;;;11.38;73.74;100021.31;5115204;28;20397;-50
2021/06/15 03:18:18;;;;;;;15.80;9.97;;;;;;;11.41;73.86;100030.88;5081638;28;20063;-50
2021/06/15 03:20:44;;;;;;;18.08;9.70;;;;;;;11.40;73.91;100035.22;5115535;28;20285;-50
2021/06/15 03:23:15;;;;;;;25.50;11.27;;;;;;;11.45;73.54;100035.13;5082072;28;20051;-51
2021/06/15 03:25:42;;;;;;;20.52;11.68;;;;;;;11.46;73.42;100036.84;5099400;28;20075;-51
2021/06/15 03:28:15;;;;;;;20.67;11.02;;;;;;;11.50;73.70;100035.84;5099125;28;20100;-51
2021/06/15 03:30:42;;;;;;;17.50;10.27;;;;;;;11.54;73.55;100031.44;5116581;28;20389;-51
2021/06/15 03:33:10;;;;;;;19.38;10.73;;;;;;;11.56;73.71;100027.84;5098683;28;20047;-50
2021/06/15 03:35:41;;;;;;;20.70;11.07;;;;;;;11.59;73.31;100025.13;5116335;28;20050;-51
2021/06/15 03:38:07;;;;;;;19.02;10.65;;;;;;;11.62;74.06;100029.44;5116253;28;20051;-50
2021/06/15 03:40:36;;;;;;;21.25;10.68;;;;;;;11.64;74.55;100033.78;5115342;28;20428;-51
2021/06/15 03:43:02;;;;;;;21.63;11.60;;;;;;;11.59;75.21;100026.91;5116458;28;20059;-51
2021/06/15 03:45:30;;;;;;;24.33;13.70;;;;;;;11.69;75.69;100042.38;5115471;28;20184;-51
2021/06/15 03:47:56;;;;;;;17.83;11.05;;;;;;;11.70;76.25;100031.00;5116423;28;20048;-51
2021/06/15 03:50:22;;;;;;;27.38;11.57;;;;;;;11.81;76.48;100042.97;5115283;28;20036;-51
2021/06/15 03:52:50;;;;;;;21.92;11.10;;;;;;;11.91;76.81;100033.97;5115760;28;20035;-50
2021/06/15 03:55:16;;;;;;;17.00;10.38;;;;;;;12.00;77.12;100038.13;5115484;28;20070;-51
2021/06/15 03:57:42;;;;;;;17.17;9.93;;;;;;;12.15;77.28;100041.19;5098409;28;20416;-51
2021/06/15 04:00:13;;;;;;;15.30;9.10;;;;;;;12.41;76.84;100039.56;5098199;28;20456;-50
2021/06/15 04:02:41;;;;;;;;;;;;;;;12.41;77.17;100042.19;5115809;28;20054;-50
2021/06/15 04:05:08;;;;;;;15.38;8.38;;;;;;;12.84;77.17;100036.53;5115302;28;19996;-50
2021/06/15 04:07:34;;;;;;;11.50;8.32;;;;;;;13.27;76.99;100040.47;5115355;28;20048;-51
2021/06/15 04:09:59;;;;;;;14.45;8.73;;;;;;;13.77;76.07;100039.69;5116200;28;20436;-50
2021/06/15 04:12:26;;;;;;;18.08;8.38;;;;;;;14.27;75.13;100024.72;5115317;28;20055;-51
2021/06/15 04:14:51;;;;;;;14.88;9.18;;;;;;;14.78;73.62;100032.53;5098932;28;20058;-50
2021/06/15 04:17:21;;;;;;;15.65;8.82;;;;;;;15.25;72.29;100025.38;5119048;28;20043;-50
2021/06/15 04:19:49;;;;;;;13.77;8.07;;;;;;;15.78;71.09;100026.72;5118709;28;20512;-51
2021/06/15 04:22:15;;;;;;;13.80;8.32;;;;;;;16.43;69.49;100027.34;5119605;28;20114;-50
2021/06/15 04:24:45;;;;;;;11.95;7.25;;;;;;;17.17;67.44;100024.78;5118752;28;20031;-50
2021/06/15 04:27:11;;;;;;;15.57;7.63;;;;;;;17.88;65.70;100030.06;5101754;28;20052;-50
2021/06/15 04:29:37;;;;;;;13.38;7.75;;;;;;;18.58;63.42;100031.59;5119721;28;20040;-50
2021/06/15 04:32:07;;;;;;;15.98;7.65;;;;;;;19.24;61.37;100025.31;5119625;28;20043;-51
2021/06/15 04:34:34;;;;;;;12.35;6.50;;;;;;;19.83;60.04;100020.97;5119369;28;20043;-51
2021/06/15 04:37:02;;;;;;;9.05;6.57;;;;;;;20.39;58.16;100014.94;5118685;28;20054;-51
2021/06/15 04:39:41;;;;;;;13.68;8.48;;;;;;;20.88;54.52;100017.19;5118631;28;20155;-51
2021/06/15 04:42:12;;;;;;;16.67;11.18;;;;;;;21.38;54.83;100024.53;5101976;28;20059;-51
2021/06/15 04:44:42;;;;;;;12.52;9.23;;;;;;;21.89;52.56;100016.66;5102025;28;20047;-52
2021/06/15 04:47:18;;;;;;;14.45;8.73;;;;;;;22.31;51.12;100019.13;5119301;28;20040;-51
2021/06/15 04:50:08;;;;;;;12.82;7.72;;;;;;;22.72;50.26;100029.53;5119060;28;20114;-51
2021/06/15 04:52:34;;;;;;;7.90;6.13;;;;;;;23.14;49.86;100031.88;5119074;27;20032;-51
2021/06/15 04:55:00;;;;;;;9.52;6.80;;;;;;;23.47;48.28;100026.72;5118368;28;20047;-51
2021/06/15 04:57:29;;;;;;;8.57;6.57;;;;;;;23.64;46.60;100020.09;5119426;28;20051;-52
2021/06/15 04:59:59;;;;;;;8.95;6.53;;;;;;;23.91;45.63;100024.31;5117941;28;20466;-51
2021/06/15 05:02:25;;;;;;;7.00;5.20;;;;;;;24.23;45.48;100029.84;5118790;28;20063;-52
2021/06/15 05:04:51;;;;;;;7.95;5.15;;;;;;;24.42;44.72;100027.44;5101216;28;20040;-51
2021/06/15 05:07:20;;;;;;;11.07;6.28;;;;;;;24.71;43.51;100034.97;5117777;28;20074;-51
2021/06/15 05:10:05;;;;;;;11.20;7.28;;;;;;;24.86;41.48;100027.50;5118945;28;20056;-51
2021/06/15 05:12:42;;;;;;;10.18;6.95;;;;;;;25.02;41.23;100029.81;5118027;28;20171;-51
2021/06/15 05:15:09;;;;;;;10.45;6.82;;;;;;;25.16;42.29;100034.94;5118941;28;20040;-51
2021/06/15 05:17:35;;;;;;;7.07;5.85;;;;;;;25.37;41.93;100033.13;5067395;28;20451;-51
2021/06/15 05:20:04;;;;;;;8.00;5.30;;;;;;;25.72;42.07;100029.31;5117881;28;20105;-51
2021/06/15 05:22:32;;;;;;;8.93;5.10;;;;;;;26.04;41.60;100023.09;5084384;28;20039;-52
2021/06/15 05:24:59;;;;;;;11.88;5.70;;;;;;;26.34;41.55;100035.66;5084222;28;20058;-51
2021/06/15 05:27:30;;;;;;;10.60;5.38;;;;;;;26.71;40.07;100035.13;5116902;28;20422;-51
2021/06/15 05:29:56;;;;;;;10.00;4.90;;;;;;;26.93;41.07;100040.28;5117401;28;20043;-51
2021/06/15 05:32:22;;;;;;;9.13;6.07;;;;;;;27.03;40.57;100040.31;5118278;28;20036;-51
2021/06/15 05:34:47;;;;;;;9.77;6.28;;;;;;;27.17;39.27;100037.28;5118472;28;20051;-51
2021/06/15 05:37:13;;;;;;;9.88;5.60;;;;;;;27.20;39.03;100011.91;5118434;28;20043;-52
2021/06/15 05:39:39;;;;;;;6.13;4.70;;;;;;;27.63;38.69;100035.72;5118359;28;20051;-52
2021/06/15 05:42:06;;;;;;;8.75;5.40;;;;;;;27.62;38.40;100036.69;5118346;28;20409;-51
2021/06/15 05:44:32;;;;;;;7.22;5.32;;;;;;;27.62;38.21;100036.69;5118020;28;20344;-51
2021/06/15 05:46:58;;;;;;;8.30;5.28;;;;;;;27.90;37.52;100032.31;5117828;27;20092;-52
2021/06/15 05:49:23;;;;;;;9.10;5.80;;;;;;;28.05;37.76;100031.88;5117294;28;20047;-52
2021/06/15 05:52:04;;;;;;;10.38;5.53;;;;;;;28.06;36.47;100038.94;5117788;28;20130;-52
2021/06/15 05:54:30;;;;;;;7.28;4.90;;;;;;;27.88;37.69;100033.44;5117943;28;20390;-51
2021/06/15 05:56:56;;;;;;;8.45;4.97;;;;;;;28.11;37.20;100040.22;5117122;28;20044;-52
2021/06/15 05:59:23;;;;;;;9.73;5.68;;;;;;;28.34;37.38;100035.34;5117115;28;20047;-52
2021/06/15 06:01:49;;;;;;;9.50;4.85;;;;;;;28.52;36.93;100037.28;5117910;28;20051;-52
2021/06/15 06:04:17;;;;;;;6.50;4.65;;;;;;;28.69;36.47;100038.31;5118160;28;20066;-51
2021/06/15 06:09:27;;;;;;;8.02;4.93;;;;;;;28.64;36.19;100033.41;5117065;28;20063;-52
2021/06/15 06:11:53;;;;;;;6.38;4.90;;;;;;;28.91;36.59;100037.06;5117737;28;20347;-52
2021/06/15 06:14:19;;;;;;;7.30;4.72;;;;;;;29.18;35.77;100041.59;5116796;28;20044;-52
2021/06/15 06:16:45;;;;;;;10.23;5.30;;;;;;;29.38;35.45;100045.88;5117630;28;20127;-52
2021/06/15 06:19:13;;;;;;;7.82;4.85;;;;;;;29.65;35.82;100049.53;5116688;28;20108;-52
2021/06/15 06:21:38;;;;;;;6.78;4.78;;;;;;;29.86;34.88;100025.72;5117306;28;20039;-52
2021/06/15 06:24:05;;;;;;;9.25;4.82;;;;;;;30.04;34.79;100039.19;5117250;27;20417;-52
2021/06/15 06:26:31;;;;;;;8.30;4.65;;;;;;;30.14;33.83;100034.53;5099263;28;20047;-52
2021/06/15 06:28:57;;;;;;;5.95;4.53;;;;;;;30.15;33.58;100040.78;5117381;28;20051;-52
2021/06/15 06:31:23;;;;;;;7.75;4.63;;;;;;;30.28;32.99;100042.06;5099278;28;20050;-52
2021/06/15 06:33:49;;;;;;;6.32;4.10;;;;;;;30.42;32.91;100037.94;5117353;28;20051;-52
2021/06/15 06:36:15;;;;;;;7.78;4.18;;;;;;;30.48;32.76;100042.72;5117294;28;20048;-52
2021/06/15 06:38:41;;;;;;;5.45;4.05;;;;;;;30.28;31.74;100042.06;5116011;28;20052;-52
2021/06/15 06:41:06;;;;;;;6.68;3.95;;;;;;;30.25;31.61;100046.94;5116330;28;20436;-51
2021/06/15 06:43:32;;;;;;;6.85;3.75;;;;;;;30.30;31.50;100047.31;5117692;28;20431;-52
2021/06/15 06:45:58;;;;;;;4.60;3.40;;;;;;;30.27;31.56;100036.84;5116820;28;20130;-52
2021/06/15 06:48:24;;;;;;;8.35;4.72;;;;;;;30.45;31.89;100039.44;5115989;28;20059;-52
2021/06/15 06:50:50;;;;;;;6.25;3.60;;;;;;;30.34;32.32;100039.75;5116813;28;20062;-52
2021/06/15 06:53:16;;;;;;;7.20;3.92;;;;;;;30.30;32.46;100033.81;5115947;28;20044;-52
2021/06/15 06:55:42;;;;;;;6.53;3.92;;;;;;;30.23;31.75;100043.56;5116664;28;20044;-52
2021/06/15 06:58:08;;;;;;;5.20;2.72;;;;;;;29.94;29.50;100044.69;5115870;28;20035;-52
2021/06/15 07:00:34;;;;;;;5.70;1.80;;;;;;;29.77;29.14;100048.28;5115752;28;20348;-52
2021/06/15 07:03:00;;;;;;;7.95;2.20;;;;;;;29.75;29.09;100047.56;5116908;28;20051;-52
2021/06/15 07:05:26;;;;;;;2.97;1.83;;;;;;;29.63;29.25;100051.50;5116593;28;20058;-52
2021/06/15 07:07:52;;;;;;;2.38;1.33;;;;;;;29.58;29.23;100047.41;5116794;28;20127;-52
2021/06/15 07:10:19;;;;;;;3.85;2.10;;;;;;;29.68;29.47;100046.50;5116544;28;20047;-52
2021/06/15 07:12:45;;;;;;;4.45;2.40;;;;;;;29.73;29.56;100041.47;5116572;28;20036;-52
2021/06/15 07:15:11;;;;;;;4.78;2.65;;;;;;;29.68;29.52;100046.50;5115909;28;20352;-52
2021/06/15 07:17:37;;;;;;;3.75;2.55;;;;;;;29.78;29.25;100044.56;5116749;28;20059;-52
2021/06/15 07:20:04;;;;;;;4.00;2.17;;;;;;;30.06;29.25;100042.56;5113976;28;20486;-52
2021/06/15 07:22:30;;;;;;;4.88;2.22;;;;;;;30.23;29.25;100036.31;5115331;28;20052;-52
2021/06/15 07:24:56;;;;;;;4.57;2.28;;;;;;;30.39;28.43;100046.38;5114797;28;20048;-52
2021/06/15 07:27:22;;;;;;;5.35;2.20;;;;;;;30.69;28.27;100052.25;5115297;28;20052;-52
2021/06/15 07:29:48;;;;;;;2.65;2.22;;;;;;;30.83;27.40;100034.59;5115420;28;20058;-52
2021/06/15 07:32:14;;;;;;;3.20;2.10;;;;;;;31.00;27.46;100041.72;5115397;28;20070;-52
2021/06/15 07:34:40;;;;;;;3.30;2.22;;;;;;;30.94;26.85;100039.72;5115890;28;20118;-52
2021/06/15 07:37:06;;;;;;;4.00;2.05;;;;;;;30.87;27.19;100039.50;5116244;28;20040;-52
2021/06/15 07:39:31;;;;;;;6.03;2.35;;;;;;;30.91;27.08;100037.34;5116559;28;20043;-52
2021/06/15 07:41:57;;;;;;;3.35;2.33;;;;;;;31.01;27.69;100034.50;5098735;28;20455;-52
2021/06/15 07:44:23;;;;;;;3.65;2.00;;;;;;;31.08;26.89;100039.06;5081690;28;20051;-52
2021/06/15 07:46:49;;;;;;;6.90;2.45;;;;;;;31.12;26.89;100037.72;5115570;28;20130;-52
2021/06/15 07:49:15;;;;;;;6.45;3.05;;;;;;;31.04;27.30;100040.41;5115589;28;20493;-53
2021/06/15 07:51:42;;;;;;;3.58;1.92;;;;;;;31.13;26.51;100036.69;5120430;28;20051;-52
2021/06/15 07:54:07;;;;;;;3.90;1.92;;;;;;;31.05;26.13;100036.69;5120450;28;20050;-53
2021/06/15 07:56:33;;;;;;;4.35;2.05;;;;;;;31.23;26.22;100024.88;5120079;28;20154;-53
2021/06/15 07:58:59;;;;;;;2.80;1.77;;;;;;;31.38;27.38;100032.22;5120090;28;20051;-52
2021/06/15 08:01:25;;;;;;;4.20;2.10;;;;;;;31.51;26.10;100026.28;5119206;28;20051;-53
2021/06/15 08:03:51;;;;;;;5.60;2.53;;;;;;;31.53;25.47;100029.69;5119916;28;20112;-53
2021/06/15 08:06:17;;;;;;;3.72;2.15;;;;;;;31.30;24.73;100026.78;5102055;28;20185;-53
2021/06/15 08:08:43;;;;;;;4.15;2.15;;;;;;;30.90;25.59;100028.34;5120158;28;20051;-53
2021/06/15 08:11:08;;;;;;;4.65;2.60;;;;;;;30.96;26.22;100026.84;5120139;27;20047;-53
2021/06/15 08:13:34;;;;;;;4.50;2.47;;;;;;;31.08;26.65;100028.25;5101105;28;20073;-53
2021/06/15 08:16:00;;;;;;;4.30;2.28;;;;;;;31.28;27.06;100036.06;5117738;28;20051;-53
2021/06/15 08:18:26;;;;;;;3.00;2.20;;;;;;;31.28;25.09;100034.19;5117666;28;20040;-53
2021/06/15 08:20:54;;;;;;;4.32;2.20;;;;;;;31.06;25.80;100032.97;5117986;28;20112;-53
2021/06/15 08:23:22;;;;;;;2.60;1.65;;;;;;;31.46;26.66;100027.81;5117717;28;20440;-53
2021/06/15 08:25:48;;;;;;;3.88;2.10;;;;;;;31.60;25.95;100033.41;5117706;28;20051;-53
2021/06/15 08:28:14;;;;;;;2.30;1.60;;;;;;;31.64;26.33;100033.91;5118004;27;20051;-53
2021/06/15 08:30:40;;;;;;;3.75;2.50;;;;;;;31.60;25.46;100033.41;5118010;28;20243;-53
2021/06/15 08:33:06;;;;;;;2.92;2.20;;;;;;;31.25;25.97;100037.22;5118133;28;20348;-53
2021/06/15 08:35:32;;;;;;;4.65;2.22;;;;;;;31.03;25.58;100033.28;5119282;28;20048;-52
2021/06/15 08:37:58;;;;;;;17.25;15.85;;;;;;;30.95;25.71;100033.28;5101547;28;20043;-52
2021/06/15 08:40:24;;;;;;;6.15;5.55;;;;;;;30.90;26.15;100032.91;5101757;28;20062;-53
2021/06/15 08:42:51;;;;;;;5.97;3.15;;;;;;;30.80;26.13;100026.81;5119206;28;20096;-52
2021/06/15 08:45:17;;;;;;;3.63;2.38;;;;;;;30.59;26.96;100025.34;5119397;27;20051;-52
2021/06/15 08:47:44;;;;;;;4.30;2.58;;;;;;;30.60;26.16;100020.78;5119418;28;20047;-52
2021/06/15 08:50:13;;;;;;;4.38;1.90;;;;;;;30.53;26.31;100022.44;5119100;28;20371;-52
2021/06/15 08:52:39;;;;;;;5.40;2.30;;;;;;;30.56;26.53;100027.53;5118469;28;20151;-52
2021/06/15 08:55:05;;;;;;;3.50;1.95;;;;;;;30.79;26.91;100022.41;5084395;28;20432;-52
2021/06/15 08:57:32;;;;;;;4.25;2.50;;;;;;;30.91;26.39;100029.22;5119007;27;20044;-52
2021/06/15 09:00:01;;;;;;;3.17;1.92;;;;;;;31.05;27.06;100025.03;5119004;28;20044;-52
2021/06/15 09:02:27;;;;;;;5.53;2.78;;;;;;;31.14;26.94;100022.19;5117694;28;20138;-52
2021/06/15 09:04:53;;;;;;;4.55;2.45;;;;;;;31.24;26.78;100022.03;5119025;28;20056;-53
2021/06/15 09:07:19;;;;;;;4.20;2.28;;;;;;;31.27;25.83;100018.97;5118909;28;20320;-53
2021/06/15 09:09:48;;;;;;;4.88;2.17;;;;;;;31.25;25.38;100023.69;5118661;28;20123;-53
2021/06/15 09:12:15;;;;;;;4.10;2.25;;;;;;;30.99;25.16;100018.41;5084388;28;20059;-53
2021/06/15 09:14:42;;;;;;;5.07;2.47;;;;;;;31.08;25.73;100022.84;5118560;28;20428;-53
2021/06/15 09:17:13;;;;;;;4.70;2.30;;;;;;;31.11;25.48;100021.66;5119172;28;20096;-53
2021/06/15 09:19:40;;;;;;;5.13;2.15;;;;;;;31.27;25.31;100018.16;5118518;28;20440;-53
2021/06/15 09:22:06;;;;;;;3.63;2.08;;;;;;;31.33;25.38;100031.00;5118470;28;20040;-53
2021/06/15 09:24:32;;;;;;;3.75;2.22;;;;;;;31.33;26.03;100025.59;5118698;27;20057;-53
2021/06/15 09:27:08;;;;;;;5.25;2.60;;;;;;;31.50;25.62;100021.06;5100324;28;20048;-53
2021/06/15 09:29:35;;;;;;;4.45;1.98;;;;;;;31.47;25.02;100014.13;5118635;28;20048;-53
2021/06/15 09:32:01;;;;;;;4.03;2.42;;;;;;;31.60;25.86;100016.34;5118225;28;20052;-53
2021/06/15 09:34:27;;;;;;;3.95;2.20;;;;;;;31.63;25.78;100013.28;5118139;28;20454;-53
2021/06/15 09:36:52;;;;;;;2.92;1.95;;;;;;;31.70;25.49;100019.72;5117584;28;20078;-53
2021/06/15 09:39:18;;;;;;;3.05;1.90;;;;;;;31.79;25.07;100017.84;5116150;28;20040;-53
2021/06/15 09:41:46;;;;;;;4.60;2.10;;;;;;;31.85;25.35;100011.72;5098217;28;20101;-53
2021/06/15 09:44:20;;;;;;;6.88;2.88;;;;;;;31.96;24.44;100006.00;5116312;28;20134;-53
2021/06/15 09:46:50;;;;;;;2.58;1.80;;;;;;;32.03;25.43;100007.00;5116236;28;20047;-53
2021/06/15 09:49:37;;;;;;;4.82;2.40;;;;;;;32.09;25.57;100010.88;5116288;28;20199;-53
2021/06/15 09:52:09;;;;;;;5.60;2.30;;;;;;;32.18;25.70;100007.16;5116124;28;20051;-52
2021/06/15 09:54:54;;;;;;;5.82;2.50;;;;;;;32.13;25.36;100002.22;5117798;28;20352;-51
2021/06/15 09:57:27;;;;;;;3.55;2.03;;;;;;;32.19;24.80;100002.56;5117763;28;20048;-52
2021/06/15 10:00:12;;;;;;;4.03;2.00;;;;;;;32.17;25.37;99997.31;5118018;28;20055;-52
2021/06/15 10:02:46;;;;;;;3.30;1.77;;;;;;;32.11;25.48;99998.03;5117985;28;20055;-52
2021/06/15 10:05:32;;;;;;;4.95;2.20;;;;;;;32.20;24.61;99996.13;5117707;27;20036;-52
2021/06/15 10:08:08;;;;;;;7.53;2.75;;;;;;;32.09;24.24;99991.94;5099855;28;20058;-52
2021/06/15 10:10:39;;;;;;;4.57;2.20;;;;;;;32.08;25.20;99996.50;5116958;28;20044;-51
2021/06/15 10:13:06;;;;;;;4.82;1.65;;;;;;;32.08;25.33;99990.25;5117098;28;20051;-52
2021/06/15 10:15:31;;;;;;;4.90;2.47;;;;;;;32.10;25.31;99994.44;5066811;28;20089;-52
2021/06/15 10:17:58;;;;;;;5.22;2.45;;;;;;;32.11;25.36;99989.91;5117882;28;20450;-52
2021/06/15 10:20:28;;;;;;;4.03;1.85;;;;;;;32.13;25.26;99985.97;5117262;28;20047;-52
2021/06/15 10:22:54;;;;;;;5.65;2.33;;;;;;;32.10;25.45;99991.75;5117299;28;20047;-52
2021/06/15 10:25:21;;;;;;;5.93;2.42;;;;;;;32.08;26.11;99996.50;5116917;28;20093;-52
2021/06/15 10:27:47;;;;;;;7.97;2.58;;;;;;;32.20;25.97;99993.41;5116895;28;20051;-52
2021/06/15 10:30:13;;;;;;;4.10;2.35;;;;;;;32.25;25.61;99985.63;5116096;28;20075;-52
2021/06/15 10:32:50;;;;;;;3.63;1.80;;;;;;;32.38;26.15;99985.91;5116221;28;20047;-52
2021/06/15 10:35:30;;;;;;;3.92;2.25;;;;;;;32.35;26.27;99986.25;5117055;28;20062;-52
2021/06/15 10:37:56;;;;;;;3.75;1.92;;;;;;;32.51;26.12;99993.53;5116280;28;20047;-51
2021/06/15 10:40:22;;;;;;;4.00;2.40;;;;;;;32.63;25.31;99986.69;5116356;28;20055;-53
2021/06/15 10:43:21;;;;;;;5.80;2.40;;;;;;;32.57;24.55;99990.94;5116350;28;20352;-53
2021/06/15 10:45:52;;;;;;;3.42;2.00;;;;;;;32.64;24.89;99984.81;5114039;28;20412;-53
2021/06/15 10:48:18;;;;;;;4.45;2.10;;;;;;;32.49;25.09;99982.00;5118027;28;20104;-53
2021/06/15 10:50:46;;;;;;;3.55;1.98;;;;;;;32.51;24.95;99985.38;5116543;28;20378;-53
2021/06/15 10:53:12;;;;;;;5.30;2.13;;;;;;;32.32;24.59;99982.03;5116831;28;20040;-53
2021/06/15 10:55:50;;;;;;;4.50;2.28;;;;;;;32.41;25.03;99974.72;5115820;28;20332;-53
2021/06/15 10:58:44;;;;;;;6.47;2.55;;;;;;;32.48;25.22;99974.91;5117347;28;20040;-53
2021/06/15 11:01:13;;;;;;;4.68;2.13;;;;;;;32.42;25.07;99968.28;5112130;28;20067;-53
2021/06/15 11:03:45;;;;;;;4.50;2.55;;;;;;;32.38;24.12;99974.22;5116901;28;20056;-53
2021/06/15 11:06:11;;;;;;;2.72;1.67;;;;;;;32.30;24.94;99969.66;5115998;28;20043;-53
2021/06/15 11:08:37;;;;;;;3.85;2.40;;;;;;;32.45;25.61;99959.81;5115761;28;20092;-53
2021/06/15 11:11:15;;;;;;;4.00;2.45;;;;;;;32.54;24.31;99956.06;5116873;28;20043;-53
2021/06/15 11:13:48;;;;;;;4.38;2.40;;;;;;;32.30;24.02;99950.72;5116554;28;20428;-53
2021/06/15 11:16:44;;;;;;;5.50;2.60;;;;;;;31.85;24.42;99944.03;5116796;28;20048;-53
2021/06/15 11:21:44;;;;;;;4.38;2.28;;;;;;;31.56;25.39;99953.59;5116499;28;20043;-53
2021/06/15 11:24:59;;;;;;;5.75;2.08;;;;;;;31.69;26.19;99950.34;5118139;28;20122;-53
2021/06/15 11:27:25;;;;;;;5.50;2.10;;;;;;;31.69;25.51;99944.94;5102483;28;20128;-53
2021/06/15 11:29:51;;;;;;;2.72;1.80;;;;;;;31.73;25.96;99929.19;5120933;28;20433;-53
2021/06/15 11:32:24;;;;;;;4.38;2.15;;;;;;;31.76;25.44;99932.41;5103157;28;20070;-53
2021/06/15 11:34:58;;;;;;;3.55;2.17;;;;;;;31.74;25.66;99928.16;5121177;28;20040;-53
2021/06/15 11:37:36;;;;;;;4.53;1.95;;;;;;;31.58;26.36;99937.16;5120862;28;20059;-53
2021/06/15 11:40:17;;;;;;;4.93;1.70;;;;;;;31.61;26.90;99928.69;5120841;28;20070;-53